aviador You're here:

PADG Decoded Metar

in _UNIDENTIFIED
Report Time2018-06-18 15:12:00
UTC Time2018-06-18 15:22:36
Flight Rules vfr VFR
Wind030° at 06 kt
W.Decomp.*RWY 03: 5.8 kt HW 1.6 kt LCW
W.Rank030° ranks 1
Current wind is below 030° avg. (7.6)
Visibility9999 m
Phenomena:N/A
Clouds:Scattered 050 Hf
Expected CloudBase > 2,000 ft AGL from Temp-Dew spread
CeilingNone
Temp07°C (ISA -6)
Dew Point02°C (71% RH)
AAT3.2°C
QNH1007 hPa
Density Alt551 ft
Elevation974 ft
Report Wrong Elevation
Raw Report
PADG 181512Z 03006KT 15SM SCT050 07/02 A2973=

Extra information for PADG:More info

Metar Taf Metar & Taf Last 4 Metars F.Rules Stats Wind Profile Meteogram Temp Stats Metar ALERT Operation Metar Decoded Social comments